createdAt,value
2019-06-07T00:01:08.422Z,100856.12
2019-06-07T00:03:37.650Z,100855.20
2019-06-07T00:06:07.809Z,100855.59
2019-06-07T00:08:37.431Z,100858.14
2019-06-07T00:11:07.768Z,100850.41
2019-06-07T00:13:37.389Z,100844.69
2019-06-07T00:16:06.386Z,100841.30
2019-06-07T00:18:35.402Z,100835.74
2019-06-07T00:21:04.439Z,100831.13
2019-06-07T00:23:33.437Z,100833.76
2019-06-07T00:26:02.450Z,100829.91
2019-06-07T00:28:31.883Z,100826.75
2019-06-07T00:31:01.625Z,100824.81
2019-06-07T00:33:31.338Z,100817.56
2019-06-07T00:36:00.343Z,100822.73
2019-06-07T00:38:29.745Z,100811.96
2019-06-07T00:40:59.145Z,100807.52
2019-06-07T00:43:28.741Z,100813.24
2019-06-07T00:45:57.876Z,100810.95
2019-06-07T00:48:32.365Z,100812.14
2019-06-07T00:50:58.388Z,100816.04
2019-06-07T00:53:32.153Z,100811.27
2019-06-07T00:55:58.727Z,100807.16
2019-06-07T00:58:29.485Z,100808.20
2019-06-07T01:00:58.640Z,100807.22
2019-06-07T01:03:27.978Z,100801.31
2019-06-07T01:05:57.253Z,100797.42
2019-06-07T01:08:29.909Z,100793.80
2019-06-07T01:10:57.021Z,100790.93
2019-06-07T01:13:27.109Z,100786.77
2019-06-07T01:15:56.253Z,100779.20
2019-06-07T01:18:37.329Z,100778.84
2019-06-07T01:20:56.686Z,100769.89
2019-06-07T01:24:01.417Z,100778.02
2019-06-07T01:25:56.788Z,100763.94
2019-06-07T01:28:27.193Z,100765.62
2019-06-07T01:30:56.553Z,100759.80
2019-06-07T01:33:46.470Z,100763.94
2019-06-07T01:35:56.563Z,100758.86
2019-06-07T01:38:26.884Z,100749.10
2019-06-07T01:40:55.962Z,100752.59
2019-06-07T01:43:28.411Z,100752.48
2019-06-07T01:45:55.981Z,100762.87
2019-06-07T01:48:27.766Z,100748.98
2019-06-07T01:50:55.756Z,100743.49
2019-06-07T01:53:26.382Z,100731.06
2019-06-07T01:55:55.515Z,100721.41
2019-06-07T01:58:27.375Z,100705.77
2019-06-07T02:00:55.454Z,100709.95
2019-06-07T02:03:26.917Z,100701.15
2019-06-07T02:05:55.240Z,100698.74
2019-06-07T02:08:27.358Z,100694.30
2019-06-07T02:10:55.725Z,100687.89
2019-06-07T02:13:28.683Z,100682.39
2019-06-07T02:15:55.816Z,100676.97
2019-06-07T02:18:27.750Z,100683.73
2019-06-07T02:20:55.898Z,100680.30
2019-06-07T02:23:30.350Z,100681.04
2019-06-07T02:25:55.709Z,100682.84
2019-06-07T02:28:42.247Z,100682.51
2019-06-07T02:31:00.153Z,100690.78
2019-06-07T02:33:31.155Z,100692.33
2019-06-07T02:35:57.270Z,100684.33
2019-06-07T02:38:29.698Z,100683.91
2019-06-07T02:40:57.684Z,100675.78
2019-06-07T02:43:28.231Z,100669.88
2019-06-07T02:46:21.210Z,100664.52
2019-06-07T02:48:35.372Z,100652.92
2019-06-07T02:50:59.982Z,100671.88
2019-06-07T02:53:30.819Z,100664.29
2019-06-07T02:56:35.111Z,100660.66
2019-06-07T02:58:35.357Z,100660.61
2019-06-07T03:01:08.636Z,100644.94
2019-06-07T03:03:33.633Z,100642.59
2019-06-07T03:06:04.091Z,100643.59
2019-06-07T03:08:36.581Z,100645.58
2019-06-07T03:11:05.073Z,100632.91
2019-06-07T03:13:37.427Z,100632.48
2019-06-07T03:16:08.591Z,100630.80
2019-06-07T03:19:09.547Z,100621.45
2019-06-07T03:21:41.680Z,100628.52
2019-06-07T03:24:11.299Z,100621.40
2019-06-07T03:29:12.983Z,100607.29
2019-06-07T03:31:47.788Z,100599.11
2019-06-07T03:34:12.935Z,100587.20
2019-06-07T03:36:42.280Z,100577.13
2019-06-07T03:39:11.292Z,100559.02
2019-06-07T03:41:50.342Z,100560.39
2019-06-07T03:44:11.081Z,100565.16
2019-06-07T03:46:41.573Z,100565.16
2019-06-07T03:49:10.941Z,100561.52
2019-06-07T03:51:41.237Z,100561.34
2019-06-07T03:54:10.168Z,100552.58
2019-06-07T03:56:41.006Z,100554.65
2019-06-07T03:59:09.939Z,100549.86
2019-06-07T04:01:41.152Z,100538.93
2019-06-07T04:04:10.305Z,100523.20
2019-06-07T04:06:42.164Z,100523.20
2019-06-07T04:09:10.109Z,100509.50
2019-06-07T04:11:40.802Z,100509.50
2019-06-07T04:14:09.967Z,100519.48
2019-06-07T04:16:44.145Z,100519.48
2019-06-07T04:19:10.729Z,100516.41
2019-06-07T04:21:42.878Z,100503.88
2019-06-07T04:24:10.507Z,100503.88
2019-06-07T04:26:43.544Z,100490.70
2019-06-07T04:29:33.039Z,100490.70
2019-06-07T04:31:43.302Z,100488.64
2019-06-07T04:34:12.426Z,100485.58
2019-06-07T04:36:56.293Z,100481.50
2019-06-07T04:39:12.992Z,100484.61
2019-06-07T04:41:42.295Z,100484.87
2019-06-07T04:44:12.628Z,100477.63
2019-06-07T04:46:42.731Z,100470.34
2019-06-07T04:49:13.527Z,100475.20
2019-06-07T04:51:43.791Z,100471.72
2019-06-07T04:54:13.237Z,100480.80
2019-06-07T04:56:44.522Z,100489.64
2019-06-07T04:59:13.334Z,100476.52
2019-06-07T05:01:42.898Z,100484.07
2019-06-07T05:04:11.984Z,100483.09
2019-06-07T05:06:42.646Z,100478.53
2019-06-07T05:09:12.189Z,100477.98
2019-06-07T05:11:44.992Z,100473.60
2019-06-07T05:14:13.873Z,100465.13
2019-06-07T05:16:44.575Z,100460.46
2019-06-07T05:19:14.227Z,100453.38
2019-06-07T05:22:01.410Z,100450.61
2019-06-07T05:24:14.669Z,100445.62
2019-06-07T05:26:43.753Z,100451.77
2019-06-07T05:29:12.800Z,100448.79
2019-06-07T05:31:45.161Z,100448.38
2019-06-07T05:34:13.033Z,100440.72
2019-06-07T05:36:44.892Z,100431.95
2019-06-07T05:39:12.886Z,100422.09
2019-06-07T05:41:44.440Z,100413.23
2019-06-07T05:44:15.201Z,100413.27
2019-06-07T05:46:47.148Z,100407.68
2019-06-07T05:49:15.449Z,100410.58
2019-06-07T05:51:45.122Z,100397.11
2019-06-07T05:54:14.725Z,100392.13
2019-06-07T05:56:45.375Z,100392.34
2019-06-07T05:59:15.563Z,100383.54
2019-06-07T06:01:56.570Z,100383.11
2019-06-07T06:04:15.685Z,100390.05
2019-06-07T06:06:47.109Z,100388.70
2019-06-07T06:09:15.440Z,100376.03
2019-06-07T06:11:56.554Z,100371.98
2019-06-07T06:14:15.337Z,100370.55
2019-06-07T06:16:47.428Z,100360.13
2019-06-07T06:19:15.801Z,100354.97
2019-06-07T06:21:46.394Z,100357.01
2019-06-07T06:24:15.523Z,100351.67
2019-06-07T06:26:51.223Z,100354.48
2019-06-07T06:29:15.344Z,100350.41
2019-06-07T06:32:35.844Z,100348.29
2019-06-07T06:34:15.491Z,100341.02
2019-06-07T06:36:47.281Z,100339.26
2019-06-07T06:39:15.902Z,100340.64
2019-06-07T06:41:54.425Z,100338.40
2019-06-07T06:44:16.482Z,100332.99
2019-06-07T06:46:50.198Z,100338.02
2019-06-07T06:49:16.390Z,100338.45
2019-06-07T06:51:47.824Z,100331.11
2019-06-07T06:54:39.029Z,100329.88
2019-06-07T06:56:52.032Z,100327.03
2019-06-07T06:59:38.137Z,100324.23
2019-06-07T07:01:52.451Z,100316.72
2019-06-07T07:04:20.355Z,100319.92
2019-06-07T07:06:51.271Z,100300.51
2019-06-07T07:09:21.551Z,100307.28
2019-06-07T07:12:08.860Z,100293.03
2019-06-07T07:14:21.341Z,100275.87
2019-06-07T07:16:54.493Z,100282.48
2019-06-07T07:19:21.142Z,100275.06
2019-06-07T07:21:53.123Z,100271.84
2019-06-07T07:24:22.354Z,100269.53
2019-06-07T07:26:53.922Z,100274.36
2019-06-07T07:29:22.538Z,100257.63
2019-06-07T07:31:55.781Z,100256.91
2019-06-07T07:34:34.680Z,100252.83
2019-06-07T07:36:59.407Z,100253.86
2019-06-07T07:39:24.940Z,100250.16
2019-06-07T07:42:13.772Z,100233.54
2019-06-07T07:44:25.021Z,100232.31
2019-06-07T07:46:55.904Z,100225.12
2019-06-07T07:49:25.112Z,100234.28
2019-06-07T07:51:57.083Z,100223.31
2019-06-07T07:54:25.242Z,100221.70
2019-06-07T07:56:56.157Z,100220.06
2019-06-07T07:59:41.336Z,100216.06
2019-06-07T08:01:56.232Z,100201.89
2019-06-07T08:05:12.174Z,100203.62
2019-06-07T08:06:56.298Z,100204.40
2019-06-07T08:09:25.347Z,100195.33
2019-06-07T08:12:00.013Z,100201.17
2019-06-07T08:14:25.104Z,100189.58
2019-06-07T08:16:57.273Z,100186.79
2019-06-07T08:19:25.134Z,100186.33
2019-06-07T08:21:55.703Z,100182.70
2019-06-07T08:24:25.302Z,100181.55
2019-06-07T08:27:18.223Z,100182.91
2019-06-07T08:29:25.038Z,100167.45
2019-06-07T08:31:57.611Z,100169.39
2019-06-07T08:34:25.158Z,100154.70
2019-06-07T08:36:57.463Z,100156.06
2019-06-07T08:39:25.076Z,100146.98
2019-06-07T08:42:13.833Z,100135.70
2019-06-07T08:44:25.784Z,100137.94
2019-06-07T08:47:16.048Z,100144.94
2019-06-07T08:49:26.123Z,100130.34
2019-06-07T08:52:03.051Z,100130.27
2019-06-07T08:54:26.962Z,100129.20
2019-06-07T08:57:16.893Z,100130.95
2019-06-07T08:59:28.102Z,100120.27
2019-06-07T09:01:59.678Z,100116.14
2019-06-07T09:04:28.666Z,100117.48
2019-06-07T09:07:18.128Z,100113.95
2019-06-07T09:09:28.870Z,100112.97
2019-06-07T09:12:03.215Z,100109.71
2019-06-07T09:14:29.356Z,100114.77
2019-06-07T09:17:01.325Z,100112.58
2019-06-07T09:19:29.134Z,100114.01
2019-06-07T09:22:03.340Z,100112.52
2019-06-07T09:24:29.361Z,100108.11
2019-06-07T09:27:02.426Z,100098.45
2019-06-07T09:29:30.182Z,100085.13
2019-06-07T09:32:04.393Z,100090.93
2019-06-07T09:34:30.342Z,100083.94
2019-06-07T09:37:10.927Z,100087.61
2019-06-07T09:39:30.580Z,100090.25
2019-06-07T09:42:01.599Z,100068.77
2019-06-07T09:44:30.470Z,100079.03
2019-06-07T09:47:19.478Z,100068.02
2019-06-07T09:49:32.991Z,100073.12
2019-06-07T09:52:06.758Z,100077.89
2019-06-07T09:57:07.538Z,100075.30
2019-06-07T09:59:33.787Z,100079.70
2019-06-07T10:02:05.595Z,100075.30
2019-06-07T10:04:34.140Z,100061.52
2019-06-07T10:07:12.318Z,100067.42
2019-06-07T10:12:06.436Z,100058.65
2019-06-07T10:14:35.544Z,100063.02
2019-06-07T10:17:05.034Z,100064.09
2019-06-07T10:19:34.923Z,100068.28
2019-06-07T10:22:05.733Z,100074.88
2019-06-07T10:24:35.346Z,100072.88
2019-06-07T10:27:05.894Z,100087.05
2019-06-07T10:29:35.373Z,100089.83
2019-06-07T10:32:09.081Z,100092.34
2019-06-07T10:34:38.534Z,100094.67
2019-06-07T10:37:09.828Z,100105.40
2019-06-07T10:39:48.066Z,100106.44
2019-06-07T10:42:11.399Z,100102.45
2019-06-07T10:44:40.734Z,100135.86
2019-06-07T10:47:10.106Z,100103.66
2019-06-07T10:49:39.600Z,100098.93
2019-06-07T10:52:10.367Z,100101.27
2019-06-07T10:54:39.854Z,100101.88
2019-06-07T10:57:12.062Z,100111.97
2019-06-07T10:59:39.961Z,100112.61
2019-06-07T11:02:09.755Z,100121.55
2019-06-07T11:04:39.291Z,100114.77
2019-06-07T11:07:09.966Z,100128.45
2019-06-07T11:09:39.114Z,100111.39
2019-06-07T11:12:08.442Z,100123.74
2019-06-07T11:14:37.622Z,100124.34
2019-06-07T11:17:07.416Z,100127.39
2019-06-07T11:19:36.946Z,100139.17
2019-06-07T11:22:06.130Z,100132.09
2019-06-07T11:24:35.123Z,100127.12
2019-06-07T11:27:04.294Z,100128.11
2019-06-07T11:29:33.331Z,100129.95
2019-06-07T11:32:02.760Z,100128.09
2019-06-07T11:34:31.974Z,100120.52
2019-06-07T11:37:01.385Z,100123.27
2019-06-07T11:39:30.694Z,100134.93
2019-06-07T11:42:00.708Z,100140.27
2019-06-07T11:44:30.144Z,100141.44
2019-06-07T11:46:59.202Z,100136.28
2019-06-07T11:49:28.242Z,100141.23
2019-06-07T11:51:57.256Z,100143.90
2019-06-07T11:54:26.634Z,100149.39
2019-06-07T11:56:56.018Z,100150.35
2019-06-07T11:59:25.444Z,100148.13
2019-06-07T12:01:54.820Z,100158.38
2019-06-07T12:04:34.329Z,100155.66
2019-06-07T12:06:55.103Z,100173.48
2019-06-07T12:09:27.944Z,100162.28
2019-06-07T12:11:55.678Z,100178.02
2019-06-07T12:14:24.706Z,100194.42
2019-06-07T12:16:54.157Z,100193.97
2019-06-07T12:19:23.316Z,100197.53
2019-06-07T12:21:52.346Z,100196.31
2019-06-07T12:24:21.387Z,100186.97
2019-06-07T12:26:50.897Z,100176.73
2019-06-07T12:29:21.230Z,100171.16
2019-06-07T12:31:50.350Z,100158.77
2019-06-07T12:34:19.538Z,100166.33
2019-06-07T12:36:48.960Z,100158.13
2019-06-07T12:39:18.112Z,100178.29
2019-06-07T12:41:47.102Z,100167.21
2019-06-07T12:44:17.032Z,100160.28
2019-06-07T12:46:46.324Z,100152.83
2019-06-07T12:49:15.554Z,100154.94
2019-06-07T12:51:45.318Z,100164.73
2019-06-07T12:54:15.471Z,100164.35
2019-06-07T12:56:44.623Z,100174.94
2019-06-07T12:59:13.952Z,100179.55
2019-06-07T13:01:44.157Z,100174.20
2019-06-07T13:04:14.364Z,100158.50
2019-06-07T13:06:43.802Z,100155.73
2019-06-07T13:09:13.448Z,100158.56
2019-06-07T13:11:42.510Z,100157.91
2019-06-07T13:14:11.697Z,100166.52
2019-06-07T13:16:40.735Z,100169.96
2019-06-07T13:19:10.174Z,100164.49
2019-06-07T13:21:39.518Z,100146.39
2019-06-07T13:24:10.000Z,100134.00
2019-06-07T13:26:39.608Z,100104.75
2019-06-07T13:29:08.632Z,100114.58
2019-06-07T13:31:37.734Z,100116.08
2019-06-07T13:34:06.792Z,100123.97
2019-06-07T13:36:36.376Z,100123.89
2019-06-07T13:39:07.885Z,100138.46
2019-06-07T13:41:42.951Z,100136.61
2019-06-07T13:44:08.023Z,100146.06
2019-06-07T13:46:37.204Z,100136.33
2019-06-07T13:49:06.775Z,100117.03
2019-06-07T13:51:39.202Z,100129.26
2019-06-07T13:54:08.193Z,100130.17
2019-06-07T13:56:37.270Z,100144.16
2019-06-07T13:59:06.690Z,100164.23
2019-06-07T14:01:35.708Z,100140.39
2019-06-07T14:04:05.088Z,100143.84
2019-06-07T14:06:34.050Z,100140.54
2019-06-07T14:09:04.991Z,100148.75
2019-06-07T14:11:49.572Z,100151.97
2019-06-07T14:14:06.372Z,100144.13
2019-06-07T14:16:35.419Z,100140.07
2019-06-07T14:19:04.435Z,100128.73
2019-06-07T14:21:33.814Z,100137.69
2019-06-07T14:24:02.840Z,100136.88
2019-06-07T14:26:32.594Z,100143.92
2019-06-07T14:29:01.754Z,100135.87
2019-06-07T14:31:32.124Z,100145.82
2019-06-07T14:34:01.373Z,100131.52
2019-06-07T14:36:31.089Z,100112.27
2019-06-07T14:39:00.859Z,100086.15
2019-06-07T14:41:31.699Z,100116.05
2019-06-07T14:44:00.648Z,100141.46
2019-06-07T14:46:30.255Z,100156.18
2019-06-07T14:48:59.317Z,100115.06
2019-06-07T14:51:28.435Z,100121.39
2019-06-07T14:53:57.911Z,100145.58
2019-06-07T14:56:27.120Z,100101.86
2019-06-07T14:58:56.122Z,100117.84
2019-06-07T15:01:26.249Z,100105.20
2019-06-07T15:03:55.485Z,100102.52
2019-06-07T15:06:24.832Z,100119.41
2019-06-07T15:08:53.903Z,100126.88
2019-06-07T15:11:22.917Z,100124.70
2019-06-07T15:13:52.298Z,100122.34
2019-06-07T15:16:21.350Z,100135.00
2019-06-07T15:18:50.474Z,100125.98
2019-06-07T15:21:19.498Z,100136.03
2019-06-07T15:23:48.904Z,100132.73
2019-06-07T15:26:17.956Z,100126.13
2019-06-07T15:28:47.298Z,100114.32
2019-06-07T15:31:16.318Z,100117.34
2019-06-07T15:33:45.710Z,100120.92
2019-06-07T15:36:14.862Z,100105.23
2019-06-07T15:38:43.979Z,100087.42
2019-06-07T15:41:13.064Z,100104.83
2019-06-07T15:43:42.158Z,100091.98
2019-06-07T15:46:11.228Z,100100.83
2019-06-07T15:48:40.584Z,100121.56
2019-06-07T15:51:10.096Z,100097.52
2019-06-07T15:53:43.181Z,100097.85
2019-06-07T15:56:09.960Z,100107.11
2019-06-07T15:58:39.487Z,100091.74
2019-06-07T16:01:08.642Z,100092.08
2019-06-07T16:03:38.032Z,100097.66
2019-06-07T16:06:07.595Z,100093.79
2019-06-07T16:08:38.547Z,100090.89
2019-06-07T16:11:08.097Z,100087.02
2019-06-07T16:13:37.194Z,100105.02
2019-06-07T16:16:06.718Z,100084.39
2019-06-07T16:18:37.557Z,100079.53
2019-06-07T16:21:07.116Z,100060.13
2019-06-07T16:23:37.765Z,100077.39
2019-06-07T16:26:07.290Z,100085.44
2019-06-07T16:28:36.345Z,100069.69
2019-06-07T16:31:05.446Z,100070.73
2019-06-07T16:33:34.684Z,100068.61
2019-06-07T16:36:03.806Z,100072.98
2019-06-07T16:38:32.805Z,100064.66
2019-06-07T16:41:01.891Z,100048.42
2019-06-07T16:43:30.978Z,100049.92
2019-06-07T16:46:00.320Z,100044.23
2019-06-07T16:48:30.107Z,100036.42
2019-06-07T16:50:59.559Z,100040.66
2019-06-07T16:53:28.626Z,100032.59
2019-06-07T16:55:58.162Z,100028.95
2019-06-07T16:58:29.266Z,100026.27
2019-06-07T17:00:58.782Z,100022.48
2019-06-07T17:03:28.222Z,100033.34
2019-06-07T17:05:57.492Z,100024.94
2019-06-07T17:08:26.834Z,100022.17
2019-06-07T17:10:56.820Z,100018.05
2019-06-07T17:13:33.616Z,100015.66
2019-06-07T17:16:00.469Z,100015.19
2019-06-07T17:18:30.369Z,100011.30
2019-06-07T17:21:00.511Z,100017.97
2019-06-07T17:23:32.986Z,100007.41
2019-06-07T17:26:02.189Z,100009.81
2019-06-07T17:28:31.689Z,100018.75
2019-06-07T17:31:00.963Z,100014.36
2019-06-07T17:33:30.585Z,100021.27
2019-06-07T17:36:00.872Z,100021.53
2019-06-07T17:38:30.500Z,100019.50
2019-06-07T17:41:00.145Z,100012.36
2019-06-07T17:43:29.818Z,100008.05
2019-06-07T17:46:00.055Z,99996.94
2019-06-07T17:48:30.149Z,99984.94
2019-06-07T17:50:59.885Z,99994.10
2019-06-07T17:53:30.578Z,100005.58
2019-06-07T17:55:59.911Z,100004.84
2019-06-07T17:58:29.421Z,99994.33
2019-06-07T18:00:58.747Z,99985.87
2019-06-07T18:03:28.238Z,99986.61
2019-06-07T18:05:57.636Z,99993.23
2019-06-07T18:08:26.765Z,99987.41
2019-06-07T18:10:56.503Z,99989.80
2019-06-07T18:13:25.936Z,99996.11
2019-06-07T18:15:58.943Z,99970.23
2019-06-07T18:18:26.448Z,99963.19
2019-06-07T18:20:55.767Z,99969.53
2019-06-07T18:23:25.585Z,99973.67
2019-06-07T18:25:54.885Z,99977.53
2019-06-07T18:28:24.887Z,99983.86
2019-06-07T18:30:54.965Z,99995.17
2019-06-07T18:33:23.995Z,100000.07
2019-06-07T18:35:55.289Z,99999.52
2019-06-07T18:38:24.749Z,99998.88
2019-06-07T18:40:55.262Z,100008.91
2019-06-07T18:43:24.511Z,100013.49
2019-06-07T18:45:53.635Z,100014.11
2019-06-07T18:48:22.661Z,100016.19
2019-06-07T18:50:52.618Z,100002.18
2019-06-07T18:53:22.338Z,100020.16
2019-06-07T18:55:52.224Z,100017.41
2019-06-07T18:58:21.348Z,100003.13
2019-06-07T19:00:51.447Z,100004.48
2019-06-07T19:03:20.544Z,99995.77
2019-06-07T19:05:50.078Z,99996.52
2019-06-07T19:08:19.207Z,100018.20
2019-06-07T19:10:48.787Z,99983.72
2019-06-07T19:13:18.252Z,99980.36
2019-06-07T19:15:47.661Z,99976.29
2019-06-07T19:18:17.466Z,99973.74
2019-06-07T19:20:46.450Z,99996.20
2019-06-07T19:23:15.518Z,99979.42
2019-06-07T19:25:44.550Z,99979.79
2019-06-07T19:28:14.903Z,99981.84
2019-06-07T19:30:44.075Z,99975.59
2019-06-07T19:33:14.153Z,99976.57
2019-06-07T19:35:43.887Z,99969.59
2019-06-07T19:38:12.933Z,99970.19
2019-06-07T19:40:41.978Z,99985.59
2019-06-07T19:43:14.337Z,99979.45
2019-06-07T19:45:44.417Z,99977.82
2019-06-07T19:48:13.434Z,99997.10
2019-06-07T19:50:43.401Z,99992.47
2019-06-07T19:53:12.488Z,99991.80
2019-06-07T19:55:41.595Z,99987.75
2019-06-07T19:58:11.093Z,100001.80
2019-06-07T20:00:41.383Z,100005.91
2019-06-07T20:03:10.424Z,99996.30
2019-06-07T20:05:39.584Z,99999.69
2019-06-07T20:08:09.019Z,100006.45
2019-06-07T20:10:38.439Z,100008.23
2019-06-07T20:13:07.445Z,100017.47
2019-06-07T20:15:37.124Z,100026.06
2019-06-07T20:18:07.726Z,100024.22
2019-06-07T20:20:37.059Z,100022.14
2019-06-07T20:23:06.659Z,100035.56
2019-06-07T20:25:36.072Z,100046.75
2019-06-07T20:28:05.771Z,100044.89
2019-06-07T20:30:34.824Z,100035.46
2019-06-07T20:33:04.037Z,100055.83
2019-06-07T20:35:33.467Z,100069.72
2019-06-07T20:38:04.006Z,100073.45
2019-06-07T20:40:33.656Z,100059.74
2019-06-07T20:43:03.550Z,100065.93
2019-06-07T20:45:34.301Z,100060.14
2019-06-07T20:48:04.202Z,100057.23
2019-06-07T20:50:33.545Z,100096.40
2019-06-07T20:53:03.173Z,100082.59
2019-06-07T20:55:33.002Z,100085.25
2019-06-07T20:58:03.775Z,100076.38
2019-06-07T21:00:33.183Z,100086.31
2019-06-07T21:03:03.201Z,100091.28
2019-06-07T21:05:32.496Z,100089.19
2019-06-07T21:08:02.383Z,100074.73
2019-06-07T21:10:33.238Z,100070.87
2019-06-07T21:13:02.664Z,100073.02
2019-06-07T21:15:45.593Z,100072.08
2019-06-07T21:18:09.912Z,100085.94
2019-06-07T21:20:35.051Z,100072.03
2019-06-07T21:23:04.750Z,100069.98
2019-06-07T21:25:33.802Z,100062.77
2019-06-07T21:28:03.134Z,100060.67
2019-06-07T21:30:32.210Z,100056.81
2019-06-07T21:33:01.399Z,100061.84
2019-06-07T21:35:30.943Z,100071.16
2019-06-07T21:38:00.017Z,100060.50
2019-06-07T21:40:29.060Z,100055.53
2019-06-07T21:42:58.074Z,100062.98
2019-06-07T21:45:27.425Z,100053.58
2019-06-07T21:47:56.575Z,100043.42
2019-06-07T21:50:25.627Z,100055.73
2019-06-07T21:52:54.713Z,100046.03
2019-06-07T21:55:24.009Z,100074.68
2019-06-07T21:57:53.065Z,100047.86
2019-06-07T22:00:28.723Z,100055.48
2019-06-07T22:02:57.863Z,100060.84
2019-06-07T22:05:27.185Z,100075.84
2019-06-07T22:07:56.216Z,100054.92
2019-06-07T22:10:25.225Z,100083.06
2019-06-07T22:12:54.855Z,100065.28
2019-06-07T22:15:34.098Z,100067.43
2019-06-07T22:17:55.000Z,100088.80
2019-06-07T22:20:24.378Z,100126.73
2019-06-07T22:22:53.458Z,100090.23
2019-06-07T22:25:22.536Z,100099.80
2019-06-07T22:27:51.960Z,100086.16
2019-06-07T22:30:21.515Z,100094.75
2019-06-07T22:32:51.085Z,100099.52
2019-06-07T22:35:20.103Z,100085.64
2019-06-07T22:37:49.234Z,100086.58
2019-06-07T22:40:18.698Z,100107.30
2019-06-07T22:42:48.130Z,100103.77
2019-06-07T22:45:17.161Z,100092.70
2019-06-07T22:47:46.259Z,100122.41
2019-06-07T22:50:16.494Z,100128.94
2019-06-07T22:52:45.853Z,100112.69
2019-06-07T22:55:15.918Z,100119.92
2019-06-07T22:57:56.607Z,100129.15
2019-06-07T23:00:26.851Z,100163.34
2019-06-07T23:02:56.240Z,100128.86
2019-06-07T23:05:25.382Z,100143.47
2019-06-07T23:07:54.374Z,100145.31
2019-06-07T23:10:23.727Z,100142.00
2019-06-07T23:12:52.779Z,100148.94
2019-06-07T23:15:22.303Z,100165.72
2019-06-07T23:17:51.684Z,100175.97
2019-06-07T23:20:20.694Z,100159.36
2019-06-07T23:22:50.096Z,100170.46
2019-06-07T23:25:23.832Z,100191.20
2019-06-07T23:27:50.251Z,100187.38
2019-06-07T23:30:21.689Z,100183.98
2019-06-07T23:32:50.618Z,100164.38
2019-06-07T23:35:21.120Z,100225.02
2019-06-07T23:37:50.476Z,100192.26
2019-06-07T23:40:19.585Z,100197.13
2019-06-07T23:42:48.892Z,100207.58
2019-06-07T23:45:19.508Z,100190.59
2019-06-07T23:47:48.658Z,100196.72
2019-06-07T23:50:17.764Z,100208.84
2019-06-07T23:52:47.405Z,100222.40
2019-06-07T23:55:17.935Z,100214.02
2019-06-07T23:57:47.065Z,100212.47
